sensor_id;sensor_type;location;lat;lon;timestamp;P1;durP1;ratioP1;P2;durP2;ratioP2
12214;SDS011;6170;42.206;24.142;2022-10-31T00:01:18;6.38;;;3.20;;
12214;SDS011;6170;42.206;24.142;2022-10-31T00:03:46;5.97;;;3.17;;
12214;SDS011;6170;42.206;24.142;2022-10-31T00:06:13;9.57;;;3.92;;
12214;SDS011;6170;42.206;24.142;2022-10-31T00:08:44;6.88;;;3.38;;
12214;SDS011;6170;42.206;24.142;2022-10-31T00:11:11;14.98;;;3.28;;
12214;SDS011;6170;42.206;24.142;2022-10-31T00:13:38;9.88;;;3.97;;
12214;SDS011;6170;42.206;24.142;2022-10-31T00:16:05;10.55;;;3.40;;
12214;SDS011;6170;42.206;24.142;2022-10-31T00:18:38;11.35;;;3.20;;
12214;SDS011;6170;42.206;24.142;2022-10-31T00:21:05;6.43;;;3.30;;
12214;SDS011;6170;42.206;24.142;2022-10-31T00:23:32;8.93;;;3.28;;
12214;SDS011;6170;42.206;24.142;2022-10-31T00:26:01;9.73;;;3.47;;
12214;SDS011;6170;42.206;24.142;2022-10-31T00:28:29;9.07;;;3.58;;
12214;SDS011;6170;42.206;24.142;2022-10-31T00:30:58;5.78;;;2.80;;
12214;SDS011;6170;42.206;24.142;2022-10-31T00:33:25;6.63;;;3.35;;
12214;SDS011;6170;42.206;24.142;2022-10-31T00:35:52;5.03;;;3.22;;
12214;SDS011;6170;42.206;24.142;2022-10-31T00:38:19;8.52;;;3.60;;
12214;SDS011;6170;42.206;24.142;2022-10-31T00:40:46;4.70;;;3.28;;
12214;SDS011;6170;42.206;24.142;2022-10-31T00:43:14;6.63;;;3.15;;
12214;SDS011;6170;42.206;24.142;2022-10-31T00:45:41;11.90;;;3.53;;
12214;SDS011;6170;42.206;24.142;2022-10-31T00:48:08;8.48;;;3.55;;
12214;SDS011;6170;42.206;24.142;2022-10-31T00:50:35;8.65;;;3.63;;
12214;SDS011;6170;42.206;24.142;2022-10-31T00:53:02;7.78;;;3.22;;
12214;SDS011;6170;42.206;24.142;2022-10-31T00:55:29;6.32;;;3.00;;
12214;SDS011;6170;42.206;24.142;2022-10-31T00:57:56;8.48;;;3.40;;
12214;SDS011;6170;42.206;24.142;2022-10-31T01:00:24;10.52;;;3.10;;
12214;SDS011;6170;42.206;24.142;2022-10-31T01:02:51;7.35;;;2.80;;
12214;SDS011;6170;42.206;24.142;2022-10-31T01:05:18;8.18;;;3.13;;
12214;SDS011;6170;42.206;24.142;2022-10-31T01:07:45;5.40;;;2.97;;
12214;SDS011;6170;42.206;24.142;2022-10-31T01:10:12;11.13;;;2.80;;
12214;SDS011;6170;42.206;24.142;2022-10-31T01:12:39;6.97;;;2.78;;
12214;SDS011;6170;42.206;24.142;2022-10-31T01:15:07;6.82;;;2.92;;
12214;SDS011;6170;42.206;24.142;2022-10-31T01:17:37;9.35;;;2.85;;
12214;SDS011;6170;42.206;24.142;2022-10-31T01:20:04;9.82;;;2.78;;
12214;SDS011;6170;42.206;24.142;2022-10-31T01:22:33;11.43;;;3.10;;
12214;SDS011;6170;42.206;24.142;2022-10-31T01:25:00;6.63;;;3.30;;
12214;SDS011;6170;42.206;24.142;2022-10-31T01:27:27;6.15;;;3.00;;
12214;SDS011;6170;42.206;24.142;2022-10-31T01:29:54;12.38;;;3.13;;
12214;SDS011;6170;42.206;24.142;2022-10-31T01:32:20;7.25;;;3.47;;
12214;SDS011;6170;42.206;24.142;2022-10-31T01:34:48;9.35;;;3.03;;
12214;SDS011;6170;42.206;24.142;2022-10-31T01:37:15;8.27;;;3.05;;
12214;SDS011;6170;42.206;24.142;2022-10-31T01:39:42;7.55;;;3.28;;
12214;SDS011;6170;42.206;24.142;2022-10-31T01:42:10;14.27;;;3.80;;
12214;SDS011;6170;42.206;24.142;2022-10-31T01:44:52;6.22;;;3.10;;
12214;SDS011;6170;42.206;24.142;2022-10-31T01:47:22;5.28;;;2.90;;
12214;SDS011;6170;42.206;24.142;2022-10-31T01:49:59;10.02;;;3.60;;
12214;SDS011;6170;42.206;24.142;2022-10-31T01:52:29;7.75;;;3.50;;
12214;SDS011;6170;42.206;24.142;2022-10-31T01:54:59;5.78;;;3.28;;
12214;SDS011;6170;42.206;24.142;2022-10-31T01:57:30;7.47;;;3.00;;
12214;SDS011;6170;42.206;24.142;2022-10-31T01:59:59;9.23;;;3.25;;
12214;SDS011;6170;42.206;24.142;2022-10-31T02:02:29;9.20;;;3.08;;
12214;SDS011;6170;42.206;24.142;2022-10-31T02:04:59;6.88;;;3.65;;
12214;SDS011;6170;42.206;24.142;2022-10-31T02:07:30;6.22;;;3.00;;
12214;SDS011;6170;42.206;24.142;2022-10-31T02:10:00;7.35;;;3.33;;
12214;SDS011;6170;42.206;24.142;2022-10-31T02:12:28;5.40;;;2.90;;
12214;SDS011;6170;42.206;24.142;2022-10-31T02:14:57;7.72;;;3.60;;
12214;SDS011;6170;42.206;24.142;2022-10-31T02:17:25;8.23;;;3.38;;
12214;SDS011;6170;42.206;24.142;2022-10-31T02:19:54;7.50;;;3.42;;
12214;SDS011;6170;42.206;24.142;2022-10-31T02:22:30;8.90;;;3.50;;
12214;SDS011;6170;42.206;24.142;2022-10-31T02:25:11;9.40;;;3.30;;
12214;SDS011;6170;42.206;24.142;2022-10-31T02:27:59;7.07;;;3.20;;
12214;SDS011;6170;42.206;24.142;2022-10-31T02:30:40;7.35;;;2.95;;
12214;SDS011;6170;42.206;24.142;2022-10-31T02:33:20;11.82;;;3.30;;
12214;SDS011;6170;42.206;24.142;2022-10-31T02:35:55;10.43;;;3.38;;
12214;SDS011;6170;42.206;24.142;2022-10-31T02:38:38;8.50;;;3.03;;
12214;SDS011;6170;42.206;24.142;2022-10-31T02:41:15;8.38;;;2.88;;
12214;SDS011;6170;42.206;24.142;2022-10-31T02:43:54;6.45;;;2.70;;
12214;SDS011;6170;42.206;24.142;2022-10-31T02:46:28;7.78;;;2.75;;
12214;SDS011;6170;42.206;24.142;2022-10-31T02:49:03;11.00;;;3.20;;
12214;SDS011;6170;42.206;24.142;2022-10-31T02:51:36;9.98;;;2.67;;
12214;SDS011;6170;42.206;24.142;2022-10-31T02:54:04;6.63;;;2.75;;
12214;SDS011;6170;42.206;24.142;2022-10-31T02:56:31;6.55;;;3.05;;
12214;SDS011;6170;42.206;24.142;2022-10-31T02:58:59;5.38;;;3.20;;
12214;SDS011;6170;42.206;24.142;2022-10-31T03:01:39;9.85;;;2.97;;
12214;SDS011;6170;42.206;24.142;2022-10-31T03:07:24;7.03;;;3.03;;
12214;SDS011;6170;42.206;24.142;2022-10-31T03:09:59;6.05;;;2.88;;
12214;SDS011;6170;42.206;24.142;2022-10-31T03:12:33;5.50;;;3.08;;
12214;SDS011;6170;42.206;24.142;2022-10-31T03:15:09;6.75;;;2.95;;
12214;SDS011;6170;42.206;24.142;2022-10-31T03:17:44;6.57;;;2.78;;
12214;SDS011;6170;42.206;24.142;2022-10-31T03:20:19;6.63;;;3.28;;
12214;SDS011;6170;42.206;24.142;2022-10-31T03:22:50;11.27;;;3.42;;
12214;SDS011;6170;42.206;24.142;2022-10-31T03:25:18;5.60;;;2.70;;
12214;SDS011;6170;42.206;24.142;2022-10-31T03:27:45;8.48;;;3.03;;
12214;SDS011;6170;42.206;24.142;2022-10-31T03:30:13;8.57;;;3.08;;
12214;SDS011;6170;42.206;24.142;2022-10-31T03:32:42;6.68;;;3.00;;
12214;SDS011;6170;42.206;24.142;2022-10-31T03:35:14;8.15;;;3.00;;
12214;SDS011;6170;42.206;24.142;2022-10-31T03:37:45;8.68;;;3.15;;
12214;SDS011;6170;42.206;24.142;2022-10-31T03:40:14;11.55;;;2.83;;
12214;SDS011;6170;42.206;24.142;2022-10-31T03:42:46;7.57;;;3.03;;
12214;SDS011;6170;42.206;24.142;2022-10-31T03:45:19;5.55;;;3.10;;
12214;SDS011;6170;42.206;24.142;2022-10-31T03:47:49;8.23;;;3.05;;
12214;SDS011;6170;42.206;24.142;2022-10-31T03:50:17;8.23;;;2.80;;
12214;SDS011;6170;42.206;24.142;2022-10-31T03:52:46;9.85;;;2.75;;
12214;SDS011;6170;42.206;24.142;2022-10-31T03:55:19;9.63;;;2.72;;
12214;SDS011;6170;42.206;24.142;2022-10-31T03:57:51;8.88;;;3.60;;
12214;SDS011;6170;42.206;24.142;2022-10-31T04:00:22;4.25;;;2.78;;
12214;SDS011;6170;42.206;24.142;2022-10-31T04:02:50;9.07;;;3.75;;
12214;SDS011;6170;42.206;24.142;2022-10-31T04:05:21;9.75;;;2.83;;
12214;SDS011;6170;42.206;24.142;2022-10-31T04:07:50;11.80;;;2.88;;
12214;SDS011;6170;42.206;24.142;2022-10-31T04:10:20;9.93;;;3.60;;
12214;SDS011;6170;42.206;24.142;2022-10-31T04:12:48;5.57;;;2.83;;
12214;SDS011;6170;42.206;24.142;2022-10-31T04:15:19;14.15;;;3.08;;
12214;SDS011;6170;42.206;24.142;2022-10-31T04:17:47;8.98;;;3.20;;
12214;SDS011;6170;42.206;24.142;2022-10-31T04:20:28;7.85;;;2.97;;
12214;SDS011;6170;42.206;24.142;2022-10-31T04:22:57;6.68;;;2.97;;
12214;SDS011;6170;42.206;24.142;2022-10-31T04:25:24;6.75;;;3.08;;
12214;SDS011;6170;42.206;24.142;2022-10-31T04:27:51;5.38;;;2.97;;
12214;SDS011;6170;42.206;24.142;2022-10-31T04:30:18;9.48;;;3.35;;
12214;SDS011;6170;42.206;24.142;2022-10-31T04:32:44;9.75;;;3.08;;
12214;SDS011;6170;42.206;24.142;2022-10-31T04:35:11;12.85;;;4.00;;
12214;SDS011;6170;42.206;24.142;2022-10-31T04:37:38;9.45;;;3.50;;
12214;SDS011;6170;42.206;24.142;2022-10-31T04:40:07;22.63;;;4.03;;
12214;SDS011;6170;42.206;24.142;2022-10-31T04:42:34;6.13;;;2.88;;
12214;SDS011;6170;42.206;24.142;2022-10-31T04:45:01;9.50;;;3.25;;
12214;SDS011;6170;42.206;24.142;2022-10-31T04:47:30;13.00;;;3.20;;
12214;SDS011;6170;42.206;24.142;2022-10-31T04:49:57;7.75;;;3.40;;
12214;SDS011;6170;42.206;24.142;2022-10-31T04:52:24;13.50;;;3.60;;
12214;SDS011;6170;42.206;24.142;2022-10-31T04:54:51;7.78;;;2.78;;
12214;SDS011;6170;42.206;24.142;2022-10-31T04:57:19;8.90;;;2.70;;
12214;SDS011;6170;42.206;24.142;2022-10-31T04:59:46;5.28;;;3.17;;
12214;SDS011;6170;42.206;24.142;2022-10-31T05:02:13;7.60;;;3.13;;
12214;SDS011;6170;42.206;24.142;2022-10-31T05:04:40;9.55;;;4.25;;
12214;SDS011;6170;42.206;24.142;2022-10-31T05:07:07;8.32;;;3.70;;
12214;SDS011;6170;42.206;24.142;2022-10-31T05:09:33;6.72;;;3.10;;
12214;SDS011;6170;42.206;24.142;2022-10-31T05:12:00;8.68;;;3.33;;
12214;SDS011;6170;42.206;24.142;2022-10-31T05:14:28;8.20;;;3.08;;
12214;SDS011;6170;42.206;24.142;2022-10-31T05:16:55;9.77;;;4.25;;
12214;SDS011;6170;42.206;24.142;2022-10-31T05:19:22;9.95;;;3.88;;
12214;SDS011;6170;42.206;24.142;2022-10-31T05:21:48;4.93;;;2.75;;
12214;SDS011;6170;42.206;24.142;2022-10-31T05:24:15;8.13;;;3.33;;
12214;SDS011;6170;42.206;24.142;2022-10-31T05:26:42;8.30;;;3.40;;
12214;SDS011;6170;42.206;24.142;2022-10-31T05:29:09;11.27;;;4.15;;
12214;SDS011;6170;42.206;24.142;2022-10-31T05:31:37;5.25;;;3.00;;
12214;SDS011;6170;42.206;24.142;2022-10-31T05:34:03;20.55;;;3.88;;
12214;SDS011;6170;42.206;24.142;2022-10-31T05:36:31;6.90;;;2.75;;
12214;SDS011;6170;42.206;24.142;2022-10-31T05:38:58;3.83;;;2.80;;
12214;SDS011;6170;42.206;24.142;2022-10-31T05:41:25;6.10;;;3.22;;
12214;SDS011;6170;42.206;24.142;2022-10-31T05:43:52;13.18;;;3.13;;
12214;SDS011;6170;42.206;24.142;2022-10-31T05:46:19;5.82;;;3.13;;
12214;SDS011;6170;42.206;24.142;2022-10-31T05:48:47;7.35;;;3.20;;
12214;SDS011;6170;42.206;24.142;2022-10-31T05:51:14;10.10;;;3.40;;
12214;SDS011;6170;42.206;24.142;2022-10-31T05:53:40;6.93;;;3.10;;
12214;SDS011;6170;42.206;24.142;2022-10-31T05:56:07;12.55;;;3.65;;
12214;SDS011;6170;42.206;24.142;2022-10-31T05:58:34;7.60;;;4.03;;
12214;SDS011;6170;42.206;24.142;2022-10-31T06:01:01;14.48;;;3.72;;
12214;SDS011;6170;42.206;24.142;2022-10-31T06:03:27;8.57;;;3.25;;
12214;SDS011;6170;42.206;24.142;2022-10-31T06:05:55;8.10;;;3.97;;
12214;SDS011;6170;42.206;24.142;2022-10-31T06:08:22;6.75;;;3.67;;
12214;SDS011;6170;42.206;24.142;2022-10-31T06:10:49;6.43;;;3.05;;
12214;SDS011;6170;42.206;24.142;2022-10-31T06:13:18;6.72;;;3.15;;
12214;SDS011;6170;42.206;24.142;2022-10-31T06:15:44;13.18;;;4.00;;
12214;SDS011;6170;42.206;24.142;2022-10-31T06:18:11;12.32;;;3.50;;
12214;SDS011;6170;42.206;24.142;2022-10-31T06:20:38;11.13;;;3.63;;
12214;SDS011;6170;42.206;24.142;2022-10-31T06:23:06;7.88;;;3.28;;
12214;SDS011;6170;42.206;24.142;2022-10-31T06:25:33;9.98;;;3.20;;
12214;SDS011;6170;42.206;24.142;2022-10-31T06:28:01;13.15;;;3.67;;
12214;SDS011;6170;42.206;24.142;2022-10-31T06:30:28;7.07;;;2.97;;
12214;SDS011;6170;42.206;24.142;2022-10-31T06:33:00;8.38;;;3.45;;
12214;SDS011;6170;42.206;24.142;2022-10-31T06:37:54;12.25;;;3.17;;
12214;SDS011;6170;42.206;24.142;2022-10-31T06:40:23;7.25;;;2.70;;
12214;SDS011;6170;42.206;24.142;2022-10-31T06:42:55;7.30;;;3.22;;
12214;SDS011;6170;42.206;24.142;2022-10-31T06:47:50;8.38;;;3.00;;
12214;SDS011;6170;42.206;24.142;2022-10-31T06:50:17;8.35;;;3.75;;
12214;SDS011;6170;42.206;24.142;2022-10-31T06:52:49;8.48;;;3.40;;
12214;SDS011;6170;42.206;24.142;2022-10-31T06:55:16;9.40;;;3.28;;
12214;SDS011;6170;42.206;24.142;2022-10-31T06:57:50;12.45;;;3.67;;
12214;SDS011;6170;42.206;24.142;2022-10-31T07:00:16;12.40;;;3.92;;
12214;SDS011;6170;42.206;24.142;2022-10-31T07:02:43;9.05;;;3.45;;
12214;SDS011;6170;42.206;24.142;2022-10-31T07:05:18;10.77;;;3.40;;
12214;SDS011;6170;42.206;24.142;2022-10-31T07:07:45;5.47;;;3.08;;
12214;SDS011;6170;42.206;24.142;2022-10-31T07:10:11;8.68;;;3.38;;
12214;SDS011;6170;42.206;24.142;2022-10-31T07:12:38;8.32;;;3.15;;
12214;SDS011;6170;42.206;24.142;2022-10-31T07:15:08;12.60;;;4.05;;
12214;SDS011;6170;42.206;24.142;2022-10-31T07:17:35;11.05;;;4.22;;
12214;SDS011;6170;42.206;24.142;2022-10-31T07:20:02;9.77;;;3.30;;
12214;SDS011;6170;42.206;24.142;2022-10-31T07:22:32;13.10;;;3.53;;
12214;SDS011;6170;42.206;24.142;2022-10-31T07:25:00;7.93;;;3.50;;
12214;SDS011;6170;42.206;24.142;2022-10-31T07:27:26;8.82;;;3.55;;
12214;SDS011;6170;42.206;24.142;2022-10-31T07:29:53;13.18;;;3.63;;
12214;SDS011;6170;42.206;24.142;2022-10-31T07:32:21;7.75;;;3.50;;
12214;SDS011;6170;42.206;24.142;2022-10-31T07:34:48;6.50;;;3.38;;
12214;SDS011;6170;42.206;24.142;2022-10-31T07:37:15;7.07;;;3.83;;
12214;SDS011;6170;42.206;24.142;2022-10-31T07:39:41;7.32;;;3.53;;
12214;SDS011;6170;42.206;24.142;2022-10-31T07:42:08;6.93;;;3.30;;
12214;SDS011;6170;42.206;24.142;2022-10-31T07:44:35;8.48;;;3.28;;
12214;SDS011;6170;42.206;24.142;2022-10-31T07:47:01;16.80;;;7.88;;
12214;SDS011;6170;42.206;24.142;2022-10-31T07:49:30;30.30;;;15.63;;
12214;SDS011;6170;42.206;24.142;2022-10-31T07:51:56;18.30;;;8.52;;
12214;SDS011;6170;42.206;24.142;2022-10-31T07:54:23;12.90;;;5.68;;
12214;SDS011;6170;42.206;24.142;2022-10-31T07:56:50;15.02;;;7.13;;
12214;SDS011;6170;42.206;24.142;2022-10-31T07:59:16;12.25;;;6.00;;
12214;SDS011;6170;42.206;24.142;2022-10-31T08:01:43;11.70;;;6.85;;
12214;SDS011;6170;42.206;24.142;2022-10-31T08:04:10;11.93;;;5.07;;
12214;SDS011;6170;42.206;24.142;2022-10-31T08:06:38;10.60;;;4.50;;
12214;SDS011;6170;42.206;24.142;2022-10-31T08:09:04;6.47;;;2.88;;
12214;SDS011;6170;42.206;24.142;2022-10-31T08:11:31;10.65;;;2.90;;
12214;SDS011;6170;42.206;24.142;2022-10-31T08:13:58;8.48;;;3.53;;
12214;SDS011;6170;42.206;24.142;2022-10-31T08:16:25;5.97;;;3.22;;
12214;SDS011;6170;42.206;24.142;2022-10-31T08:18:52;9.25;;;3.42;;
12214;SDS011;6170;42.206;24.142;2022-10-31T08:21:20;7.50;;;4.00;;
12214;SDS011;6170;42.206;24.142;2022-10-31T08:23:48;9.00;;;3.30;;
12214;SDS011;6170;42.206;24.142;2022-10-31T08:26:15;9.25;;;3.40;;
12214;SDS011;6170;42.206;24.142;2022-10-31T08:28:42;7.20;;;2.80;;
12214;SDS011;6170;42.206;24.142;2022-10-31T08:31:08;8.35;;;2.75;;
12214;SDS011;6170;42.206;24.142;2022-10-31T08:33:35;7.75;;;2.70;;
12214;SDS011;6170;42.206;24.142;2022-10-31T08:36:02;5.45;;;2.80;;
12214;SDS011;6170;42.206;24.142;2022-10-31T08:38:29;5.78;;;2.50;;
12214;SDS011;6170;42.206;24.142;2022-10-31T08:40:57;10.80;;;2.50;;
12214;SDS011;6170;42.206;24.142;2022-10-31T08:43:23;7.07;;;2.42;;
12214;SDS011;6170;42.206;24.142;2022-10-31T08:45:50;6.13;;;2.47;;
12214;SDS011;6170;42.206;24.142;2022-10-31T08:48:20;5.88;;;2.53;;
12214;SDS011;6170;42.206;24.142;2022-10-31T08:50:47;8.13;;;3.67;;
12214;SDS011;6170;42.206;24.142;2022-10-31T08:53:14;6.88;;;2.92;;
12214;SDS011;6170;42.206;24.142;2022-10-31T08:55:44;7.20;;;2.30;;
12214;SDS011;6170;42.206;24.142;2022-10-31T08:58:13;7.13;;;2.53;;
12214;SDS011;6170;42.206;24.142;2022-10-31T09:00:41;7.57;;;2.50;;
12214;SDS011;6170;42.206;24.142;2022-10-31T09:03:10;7.53;;;2.10;;
12214;SDS011;6170;42.206;24.142;2022-10-31T09:05:38;6.57;;;2.58;;
12214;SDS011;6170;42.206;24.142;2022-10-31T09:08:05;4.90;;;2.38;;
12214;SDS011;6170;42.206;24.142;2022-10-31T09:10:33;8.32;;;2.60;;
12214;SDS011;6170;42.206;24.142;2022-10-31T09:13:02;5.18;;;2.40;;
12214;SDS011;6170;42.206;24.142;2022-10-31T09:15:32;5.53;;;2.63;;
12214;SDS011;6170;42.206;24.142;2022-10-31T09:18:00;6.20;;;2.30;;
12214;SDS011;6170;42.206;24.142;2022-10-31T09:20:27;6.93;;;2.58;;
12214;SDS011;6170;42.206;24.142;2022-10-31T09:22:58;4.93;;;2.25;;
12214;SDS011;6170;42.206;24.142;2022-10-31T09:25:26;9.00;;;2.92;;
12214;SDS011;6170;42.206;24.142;2022-10-31T09:27:55;6.72;;;2.35;;
12214;SDS011;6170;42.206;24.142;2022-10-31T09:30:23;3.97;;;2.20;;
12214;SDS011;6170;42.206;24.142;2022-10-31T09:32:55;6.80;;;2.58;;
12214;SDS011;6170;42.206;24.142;2022-10-31T09:35:22;4.13;;;2.60;;
12214;SDS011;6170;42.206;24.142;2022-10-31T09:37:53;5.38;;;2.30;;
12214;SDS011;6170;42.206;24.142;2022-10-31T09:40:21;4.80;;;2.30;;
12214;SDS011;6170;42.206;24.142;2022-10-31T09:42:51;5.65;;;2.55;;
12214;SDS011;6170;42.206;24.142;2022-10-31T09:45:26;5.85;;;2.60;;
12214;SDS011;6170;42.206;24.142;2022-10-31T09:48:02;4.30;;;2.53;;
12214;SDS011;6170;42.206;24.142;2022-10-31T09:50:42;7.53;;;2.45;;
12214;SDS011;6170;42.206;24.142;2022-10-31T09:53:16;10.57;;;2.73;;
12214;SDS011;6170;42.206;24.142;2022-10-31T09:55:49;5.25;;;2.22;;
12214;SDS011;6170;42.206;24.142;2022-10-31T09:58:18;13.25;;;2.65;;
12214;SDS011;6170;42.206;24.142;2022-10-31T10:00:48;5.93;;;2.63;;
12214;SDS011;6170;42.206;24.142;2022-10-31T10:03:26;4.80;;;2.38;;
12214;SDS011;6170;42.206;24.142;2022-10-31T10:06:04;6.18;;;2.30;;
12214;SDS011;6170;42.206;24.142;2022-10-31T10:08:37;8.88;;;2.80;;
12214;SDS011;6170;42.206;24.142;2022-10-31T10:11:08;9.80;;;2.75;;
12214;SDS011;6170;42.206;24.142;2022-10-31T10:13:51;5.05;;;2.17;;
12214;SDS011;6170;42.206;24.142;2022-10-31T10:16:51;5.30;;;2.42;;
12214;SDS011;6170;42.206;24.142;2022-10-31T10:19:33;7.90;;;2.42;;
12214;SDS011;6170;42.206;24.142;2022-10-31T10:22:12;11.05;;;2.45;;
12214;SDS011;6170;42.206;24.142;2022-10-31T10:27:44;6.32;;;2.55;;
12214;SDS011;6170;42.206;24.142;2022-10-31T10:30:16;5.90;;;2.10;;
12214;SDS011;6170;42.206;24.142;2022-10-31T10:32:46;5.25;;;2.13;;
12214;SDS011;6170;42.206;24.142;2022-10-31T10:35:19;8.80;;;2.53;;
12214;SDS011;6170;42.206;24.142;2022-10-31T10:37:52;6.40;;;2.08;;
12214;SDS011;6170;42.206;24.142;2022-10-31T10:40:23;10.90;;;3.17;;
12214;SDS011;6170;42.206;24.142;2022-10-31T10:42:55;6.10;;;2.58;;
12214;SDS011;6170;42.206;24.142;2022-10-31T10:45:50;6.82;;;2.92;;
12214;SDS011;6170;42.206;24.142;2022-10-31T10:48:44;6.60;;;2.45;;
12214;SDS011;6170;42.206;24.142;2022-10-31T10:51:21;7.07;;;2.65;;
12214;SDS011;6170;42.206;24.142;2022-10-31T10:53:54;6.95;;;2.63;;
12214;SDS011;6170;42.206;24.142;2022-10-31T10:56:48;6.20;;;2.72;;
12214;SDS011;6170;42.206;24.142;2022-10-31T10:59:23;8.98;;;2.58;;
12214;SDS011;6170;42.206;24.142;2022-10-31T11:01:50;8.32;;;2.85;;
12214;SDS011;6170;42.206;24.142;2022-10-31T11:04:25;8.13;;;2.55;;
12214;SDS011;6170;42.206;24.142;2022-10-31T11:07:03;7.97;;;2.60;;
12214;SDS011;6170;42.206;24.142;2022-10-31T11:09:32;5.07;;;2.40;;
12214;SDS011;6170;42.206;24.142;2022-10-31T11:12:00;9.48;;;2.63;;
12214;SDS011;6170;42.206;24.142;2022-10-31T11:14:34;9.90;;;2.75;;
12214;SDS011;6170;42.206;24.142;2022-10-31T11:17:08;11.23;;;3.03;;
12214;SDS011;6170;42.206;24.142;2022-10-31T11:19:37;7.13;;;2.78;;
12214;SDS011;6170;42.206;24.142;2022-10-31T11:22:12;5.32;;;2.10;;
12214;SDS011;6170;42.206;24.142;2022-10-31T11:24:42;7.07;;;2.25;;
12214;SDS011;6170;42.206;24.142;2022-10-31T11:27:11;8.35;;;2.38;;
12214;SDS011;6170;42.206;24.142;2022-10-31T11:29:41;7.20;;;2.63;;
12214;SDS011;6170;42.206;24.142;2022-10-31T11:32:14;5.65;;;2.70;;
12214;SDS011;6170;42.206;24.142;2022-10-31T11:34:45;10.45;;;3.00;;
12214;SDS011;6170;42.206;24.142;2022-10-31T11:37:17;6.53;;;2.63;;
12214;SDS011;6170;42.206;24.142;2022-10-31T11:39:48;8.18;;;2.85;;
12214;SDS011;6170;42.206;24.142;2022-10-31T11:42:19;6.55;;;2.40;;
12214;SDS011;6170;42.206;24.142;2022-10-31T11:44:49;8.02;;;2.90;;
12214;SDS011;6170;42.206;24.142;2022-10-31T11:47:17;10.13;;;2.65;;
12214;SDS011;6170;42.206;24.142;2022-10-31T11:52:18;8.13;;;2.47;;
12214;SDS011;6170;42.206;24.142;2022-10-31T11:54:48;4.40;;;2.47;;
12214;SDS011;6170;42.206;24.142;2022-10-31T11:57:23;10.10;;;2.85;;
12214;SDS011;6170;42.206;24.142;2022-10-31T11:59:51;8.18;;;3.28;;
12214;SDS011;6170;42.206;24.142;2022-10-31T12:02:20;10.00;;;2.90;;
12214;SDS011;6170;42.206;24.142;2022-10-31T12:04:48;5.03;;;3.08;;
12214;SDS011;6170;42.206;24.142;2022-10-31T12:07:23;7.72;;;2.90;;
12214;SDS011;6170;42.206;24.142;2022-10-31T12:09:50;9.52;;;2.58;;
12214;SDS011;6170;42.206;24.142;2022-10-31T12:12:39;8.45;;;2.40;;
12214;SDS011;6170;42.206;24.142;2022-10-31T12:18:11;9.68;;;2.83;;
12214;SDS011;6170;42.206;24.142;2022-10-31T12:21:03;7.28;;;2.60;;
12214;SDS011;6170;42.206;24.142;2022-10-31T12:23:47;5.07;;;2.60;;
12214;SDS011;6170;42.206;24.142;2022-10-31T12:26:25;5.10;;;2.30;;
12214;SDS011;6170;42.206;24.142;2022-10-31T12:29:14;7.57;;;2.83;;
12214;SDS011;6170;42.206;24.142;2022-10-31T12:31:57;5.03;;;2.63;;
12214;SDS011;6170;42.206;24.142;2022-10-31T12:34:52;6.35;;;2.45;;
12214;SDS011;6170;42.206;24.142;2022-10-31T12:37:35;7.28;;;2.47;;
12214;SDS011;6170;42.206;24.142;2022-10-31T12:40:18;9.35;;;2.70;;
12214;SDS011;6170;42.206;24.142;2022-10-31T12:43:00;5.30;;;2.53;;
12214;SDS011;6170;42.206;24.142;2022-10-31T12:45:42;6.82;;;2.97;;
12214;SDS011;6170;42.206;24.142;2022-10-31T12:48:25;6.90;;;2.92;;
12214;SDS011;6170;42.206;24.142;2022-10-31T12:51:06;7.10;;;2.80;;
12214;SDS011;6170;42.206;24.142;2022-10-31T12:56:37;8.85;;;2.50;;
12214;SDS011;6170;42.206;24.142;2022-10-31T12:59:13;4.50;;;2.85;;
12214;SDS011;6170;42.206;24.142;2022-10-31T13:01:48;7.40;;;2.60;;
12214;SDS011;6170;42.206;24.142;2022-10-31T13:04:23;4.43;;;2.22;;
12214;SDS011;6170;42.206;24.142;2022-10-31T13:07:02;6.53;;;2.83;;
12214;SDS011;6170;42.206;24.142;2022-10-31T13:09:33;10.18;;;2.75;;
12214;SDS011;6170;42.206;24.142;2022-10-31T13:12:07;6.53;;;2.53;;
12214;SDS011;6170;42.206;24.142;2022-10-31T13:14:36;3.50;;;2.07;;
12214;SDS011;6170;42.206;24.142;2022-10-31T13:17:08;3.53;;;2.00;;
12214;SDS011;6170;42.206;24.142;2022-10-31T13:19:43;4.20;;;2.33;;
12214;SDS011;6170;42.206;24.142;2022-10-31T13:22:13;10.15;;;2.47;;
12214;SDS011;6170;42.206;24.142;2022-10-31T13:24:46;4.55;;;2.50;;
12214;SDS011;6170;42.206;24.142;2022-10-31T13:27:20;5.55;;;2.35;;
12214;SDS011;6170;42.206;24.142;2022-10-31T13:29:53;4.32;;;2.20;;
12214;SDS011;6170;42.206;24.142;2022-10-31T13:32:26;7.88;;;2.92;;
12214;SDS011;6170;42.206;24.142;2022-10-31T13:35:02;12.70;;;3.47;;
12214;SDS011;6170;42.206;24.142;2022-10-31T13:37:32;10.30;;;3.38;;
12214;SDS011;6170;42.206;24.142;2022-10-31T13:40:08;6.93;;;3.28;;
12214;SDS011;6170;42.206;24.142;2022-10-31T13:42:48;7.75;;;2.83;;
12214;SDS011;6170;42.206;24.142;2022-10-31T13:45:22;5.10;;;2.60;;
12214;SDS011;6170;42.206;24.142;2022-10-31T13:47:57;11.32;;;3.20;;
12214;SDS011;6170;42.206;24.142;2022-10-31T13:50:26;6.05;;;3.25;;
12214;SDS011;6170;42.206;24.142;2022-10-31T13:53:03;4.88;;;2.70;;
12214;SDS011;6170;42.206;24.142;2022-10-31T13:58:16;8.48;;;4.20;;
12214;SDS011;6170;42.206;24.142;2022-10-31T14:00:57;7.97;;;3.92;;
12214;SDS011;6170;42.206;24.142;2022-10-31T14:03:31;10.95;;;6.43;;
12214;SDS011;6170;42.206;24.142;2022-10-31T14:06:01;11.85;;;4.28;;
12214;SDS011;6170;42.206;24.142;2022-10-31T14:08:29;24.90;;;16.45;;
12214;SDS011;6170;42.206;24.142;2022-10-31T14:11:00;12.20;;;7.25;;
12214;SDS011;6170;42.206;24.142;2022-10-31T14:13:29;14.25;;;7.60;;
12214;SDS011;6170;42.206;24.142;2022-10-31T14:16:02;7.95;;;5.07;;
12214;SDS011;6170;42.206;24.142;2022-10-31T14:18:32;7.10;;;3.53;;
12214;SDS011;6170;42.206;24.142;2022-10-31T14:21:12;5.82;;;3.25;;
12214;SDS011;6170;42.206;24.142;2022-10-31T14:23:40;10.50;;;3.83;;
12214;SDS011;6170;42.206;24.142;2022-10-31T14:26:17;8.93;;;3.35;;
12214;SDS011;6170;42.206;24.142;2022-10-31T14:28:58;11.70;;;3.83;;
12214;SDS011;6170;42.206;24.142;2022-10-31T14:31:31;9.00;;;3.30;;
12214;SDS011;6170;42.206;24.142;2022-10-31T14:34:02;8.07;;;3.80;;
12214;SDS011;6170;42.206;24.142;2022-10-31T14:36:47;13.77;;;3.90;;
12214;SDS011;6170;42.206;24.142;2022-10-31T14:39:24;9.70;;;5.78;;
12214;SDS011;6170;42.206;24.142;2022-10-31T14:42:02;10.60;;;4.20;;
12214;SDS011;6170;42.206;24.142;2022-10-31T14:45:02;14.98;;;3.72;;
12214;SDS011;6170;42.206;24.142;2022-10-31T14:47:39;11.07;;;3.63;;
12214;SDS011;6170;42.206;24.142;2022-10-31T14:52:56;14.25;;;4.85;;
12214;SDS011;6170;42.206;24.142;2022-10-31T14:55:23;12.20;;;5.18;;
12214;SDS011;6170;42.206;24.142;2022-10-31T14:57:54;17.08;;;4.97;;
12214;SDS011;6170;42.206;24.142;2022-10-31T15:00:25;18.40;;;5.50;;
12214;SDS011;6170;42.206;24.142;2022-10-31T15:03:08;14.55;;;5.57;;
12214;SDS011;6170;42.206;24.142;2022-10-31T15:05:41;10.30;;;5.35;;
12214;SDS011;6170;42.206;24.142;2022-10-31T15:08:13;23.08;;;6.57;;
12214;SDS011;6170;42.206;24.142;2022-10-31T15:10:51;18.73;;;6.63;;
12214;SDS011;6170;42.206;24.142;2022-10-31T15:13:19;25.92;;;8.65;;
12214;SDS011;6170;42.206;24.142;2022-10-31T15:15:48;20.80;;;8.80;;
12214;SDS011;6170;42.206;24.142;2022-10-31T15:18:19;37.88;;;16.15;;
12214;SDS011;6170;42.206;24.142;2022-10-31T15:20:48;44.63;;;17.35;;
12214;SDS011;6170;42.206;24.142;2022-10-31T15:23:16;60.47;;;23.92;;
12214;SDS011;6170;42.206;24.142;2022-10-31T15:25:47;38.60;;;15.82;;
12214;SDS011;6170;42.206;24.142;2022-10-31T15:28:14;21.70;;;8.88;;
12214;SDS011;6170;42.206;24.142;2022-10-31T15:33:20;18.77;;;6.25;;